createdAt,value
2018-09-11T00:00:33.514Z,16.60
2018-09-11T00:02:37.398Z,16.60
2018-09-11T00:04:41.478Z,16.60
2018-09-11T00:06:46.039Z,16.60
2018-09-11T00:08:50.532Z,16.60
2018-09-11T00:10:54.510Z,16.60
2018-09-11T00:12:58.561Z,16.50
2018-09-11T00:15:02.574Z,16.50
2018-09-11T00:17:06.654Z,16.50
2018-09-11T00:19:10.768Z,16.50
2018-09-11T00:21:14.704Z,16.40
2018-09-11T00:23:18.819Z,16.40
2018-09-11T00:25:22.909Z,16.30
2018-09-11T00:27:27.048Z,16.30
2018-09-11T00:29:31.098Z,16.30
2018-09-11T00:31:39.731Z,16.30
2018-09-11T00:33:43.766Z,16.30
2018-09-11T00:35:48.174Z,16.20
2018-09-11T00:37:52.030Z,16.20
2018-09-11T00:39:55.997Z,16.10
2018-09-11T00:41:59.939Z,16.10
2018-09-11T00:44:04.209Z,16.10
2018-09-11T00:46:08.887Z,16.00
2018-09-11T00:48:12.938Z,16.00
2018-09-11T00:50:16.838Z,15.90
2018-09-11T00:52:21.023Z,15.90
2018-09-11T00:54:25.051Z,15.90
2018-09-11T00:56:29.156Z,15.90
2018-09-11T00:58:33.249Z,15.90
2018-09-11T01:00:37.299Z,15.80
2018-09-11T01:02:45.524Z,15.80
2018-09-11T01:04:49.528Z,15.80
2018-09-11T01:06:53.371Z,15.70
2018-09-11T01:08:57.297Z,15.70
2018-09-11T01:11:01.290Z,15.70
2018-09-11T01:13:05.383Z,15.70
2018-09-11T01:15:10.446Z,15.60
2018-09-11T01:17:14.416Z,15.60
2018-09-11T01:19:18.420Z,15.50
2018-09-11T01:21:22.475Z,15.40
2018-09-11T01:23:26.403Z,15.40
2018-09-11T01:25:30.434Z,15.40
2018-09-11T01:27:34.470Z,15.30
2018-09-11T01:29:39.497Z,15.30
2018-09-11T01:31:44.689Z,15.20
2018-09-11T01:33:48.770Z,15.20
2018-09-11T01:35:52.800Z,15.10
2018-09-11T01:37:56.792Z,15.20
2018-09-11T01:40:00.780Z,15.10
2018-09-11T01:42:05.093Z,15.10
2018-09-11T01:44:09.713Z,15.10
2018-09-11T01:46:13.698Z,15.10
2018-09-11T01:48:17.553Z,15.00
2018-09-11T01:50:21.640Z,15.00
2018-09-11T01:52:25.487Z,15.00
2018-09-11T01:54:29.769Z,15.00
2018-09-11T01:56:33.729Z,14.90
2018-09-11T01:58:37.814Z,14.90
2018-09-11T02:00:41.742Z,14.90
2018-09-11T02:02:46.498Z,14.80
2018-09-11T02:04:50.493Z,14.90
2018-09-11T02:06:56.494Z,14.80
2018-09-11T02:09:00.404Z,14.80
2018-09-11T02:11:04.544Z,14.80
2018-09-11T02:13:08.409Z,14.70
2018-09-11T02:15:12.480Z,14.70
2018-09-11T02:17:16.419Z,14.70
2018-09-11T02:19:20.491Z,14.60
2018-09-11T02:21:24.421Z,14.60
2018-09-11T02:23:28.375Z,14.50
2018-09-11T02:25:32.312Z,14.50
2018-09-11T02:27:36.307Z,14.50
2018-09-11T02:29:40.297Z,14.40
2018-09-11T02:31:44.408Z,14.40
2018-09-11T02:33:48.312Z,14.40
2018-09-11T02:35:52.447Z,14.40
2018-09-11T02:37:56.203Z,14.30
2018-09-11T02:40:00.323Z,14.30
2018-09-11T02:42:04.207Z,14.20
2018-09-11T02:44:09.064Z,14.20
2018-09-11T02:46:13.047Z,14.10
2018-09-11T02:48:17.162Z,14.10
2018-09-11T02:50:21.145Z,14.10
2018-09-11T02:52:25.087Z,14.10
2018-09-11T02:54:31.002Z,14.10
2018-09-11T02:56:35.028Z,14.10
2018-09-11T02:58:38.923Z,14.10
2018-09-11T03:00:43.051Z,14.10
2018-09-11T03:02:47.081Z,14.10
2018-09-11T03:04:51.144Z,14.10
2018-09-11T03:06:55.111Z,14.10
2018-09-11T03:08:59.034Z,14.10
2018-09-11T03:11:03.011Z,14.10
2018-09-11T03:13:07.159Z,14.10
2018-09-11T03:15:11.176Z,14.10
2018-09-11T03:17:15.431Z,14.00
2018-09-11T03:19:19.600Z,14.10
2018-09-11T03:21:24.783Z,14.00
2018-09-11T03:23:28.790Z,14.00
2018-09-11T03:25:33.636Z,13.90
2018-09-11T03:27:37.480Z,14.00
2018-09-11T03:29:41.572Z,14.00
2018-09-11T03:31:45.438Z,14.00
2018-09-11T03:33:49.397Z,13.90
2018-09-11T03:35:53.345Z,13.90
2018-09-11T03:37:57.323Z,13.90
2018-09-11T03:40:01.265Z,13.90
2018-09-11T03:42:05.353Z,13.90
2018-09-11T03:44:10.375Z,13.90
2018-09-11T03:46:14.228Z,13.80
2018-09-11T03:48:22.553Z,13.80
2018-09-11T03:50:27.514Z,13.80
2018-09-11T03:52:32.251Z,13.80
2018-09-11T03:56:01.642Z,13.80
2018-09-11T03:58:05.924Z,13.70
2018-09-11T04:00:10.859Z,13.70
2018-09-11T04:02:15.523Z,13.60
2018-09-11T04:04:19.322Z,13.60
2018-09-11T04:06:23.504Z,13.50
2018-09-11T04:08:27.436Z,13.50
2018-09-11T04:10:32.976Z,13.50
2018-09-11T04:12:37.352Z,13.40
2018-09-11T04:14:43.165Z,13.40
2018-09-11T04:16:47.045Z,13.40
2018-09-11T04:18:50.949Z,13.30
2018-09-11T04:20:54.890Z,13.30
2018-09-11T04:22:59.012Z,13.30
2018-09-11T04:25:03.227Z,13.30
2018-09-11T04:27:07.197Z,13.20
2018-09-11T04:29:15.066Z,13.20
2018-09-11T04:31:20.184Z,13.20
2018-09-11T04:33:32.143Z,13.20
2018-09-11T04:35:36.025Z,13.20
2018-09-11T04:37:39.858Z,13.10
2018-09-11T04:39:43.736Z,13.10
2018-09-11T04:41:48.191Z,13.10
2018-09-11T04:43:52.253Z,13.10
2018-09-11T04:45:56.814Z,13.00
2018-09-11T04:50:36.536Z,13.00
2018-09-11T04:52:40.455Z,13.00
2018-09-11T04:54:44.397Z,12.90
2018-09-11T04:56:48.184Z,12.90
2018-09-11T04:58:51.972Z,12.90
2018-09-11T05:00:55.761Z,12.90
2018-09-11T05:02:59.631Z,12.80
2018-09-11T05:05:03.603Z,12.80
2018-09-11T05:07:07.461Z,12.80
2018-09-11T05:09:11.908Z,12.80
2018-09-11T05:11:15.807Z,12.80
2018-09-11T05:13:19.730Z,12.80
2018-09-11T05:15:23.476Z,12.70
2018-09-11T05:17:27.375Z,12.70
2018-09-11T05:19:31.201Z,12.70
2018-09-11T05:21:35.030Z,12.70
2018-09-11T05:23:38.807Z,12.70
2018-09-11T05:25:42.588Z,12.70
2018-09-11T05:27:54.324Z,12.70
2018-09-11T05:29:58.084Z,12.70
2018-09-11T05:32:01.907Z,12.70
2018-09-11T05:34:05.709Z,12.80
2018-09-11T05:36:09.470Z,12.70
2018-09-11T05:38:13.395Z,12.70
2018-09-11T05:40:17.220Z,12.70
2018-09-11T05:42:21.028Z,12.70
2018-09-11T05:44:25.717Z,12.70
2018-09-11T05:46:29.704Z,12.60
2018-09-11T05:48:41.370Z,12.60
2018-09-11T05:50:45.244Z,12.60
2018-09-11T05:52:49.226Z,12.70
2018-09-11T05:54:53.140Z,12.80
2018-09-11T05:56:58.168Z,12.90
2018-09-11T05:59:01.977Z,13.00
2018-09-11T06:01:06.310Z,13.10
2018-09-11T06:03:10.299Z,13.30
2018-09-11T06:07:49.805Z,13.50
2018-09-11T06:09:53.761Z,13.70
2018-09-11T06:11:57.802Z,13.80
2018-09-11T06:14:01.731Z,14.00
2018-09-11T06:16:05.592Z,14.10
2018-09-11T06:18:09.442Z,14.10
2018-09-11T06:20:13.256Z,14.20
2018-09-11T06:22:17.129Z,14.30
2018-09-11T06:24:21.175Z,14.40
2018-09-11T06:29:00.532Z,14.60
2018-09-11T06:31:04.384Z,14.70
2018-09-11T06:33:08.156Z,14.80
2018-09-11T06:35:12.088Z,14.90
2018-09-11T06:37:16.025Z,15.10
2018-09-11T06:39:20.010Z,15.20
2018-09-11T06:41:23.882Z,15.30
2018-09-11T06:43:27.737Z,15.60
2018-09-11T06:45:31.639Z,15.80
2018-09-11T06:47:35.629Z,16.00
2018-09-11T06:49:39.545Z,16.20
2018-09-11T06:51:43.448Z,16.50
2018-09-11T06:56:23.519Z,17.00
2018-09-11T06:58:27.579Z,17.00
2018-09-11T07:00:31.629Z,17.20
2018-09-11T07:02:35.337Z,17.30
2018-09-11T07:04:39.219Z,17.50
2018-09-11T07:06:43.148Z,17.80
2018-09-11T07:08:55.431Z,18.10
2018-09-11T07:10:59.302Z,18.30
2018-09-11T07:13:03.371Z,18.50
2018-09-11T07:15:07.444Z,18.70
2018-09-11T07:17:18.909Z,18.80
2018-09-11T07:19:22.754Z,19.20
2018-09-11T07:21:26.571Z,19.60
2018-09-11T07:23:30.688Z,19.90
2018-09-11T07:25:34.595Z,20.20
2018-09-11T07:27:38.351Z,20.40
2018-09-11T07:29:42.181Z,20.60
2018-09-11T07:31:46.044Z,20.70
2018-09-11T07:33:50.052Z,20.80
2018-09-11T07:35:53.859Z,20.90
2018-09-11T07:38:05.431Z,21.10
2018-09-11T07:40:09.289Z,21.20
2018-09-11T07:42:13.125Z,21.30
2018-09-11T07:44:16.956Z,21.20
2018-09-11T07:46:20.802Z,21.30
2018-09-11T07:48:24.766Z,21.40
2018-09-11T07:50:28.658Z,21.60
2018-09-11T07:52:32.451Z,21.60
2018-09-11T07:54:36.231Z,21.70
2018-09-11T07:56:40.114Z,21.90
2018-09-11T07:58:43.897Z,22.20
2018-09-11T08:00:47.751Z,22.40
2018-09-11T08:02:51.620Z,22.70
2018-09-11T08:04:55.392Z,22.90
2018-09-11T08:06:59.450Z,22.90
2018-09-11T08:09:03.464Z,22.60
2018-09-11T08:11:07.358Z,22.20
2018-09-11T08:13:11.163Z,21.90
2018-09-11T08:15:23.250Z,21.80
2018-09-11T08:17:27.176Z,21.70
2018-09-11T08:19:31.054Z,21.70
2018-09-11T08:21:35.065Z,21.90
2018-09-11T08:23:38.888Z,22.10
2018-09-11T08:25:42.728Z,22.30
2018-09-11T08:27:46.569Z,22.60
2018-09-11T08:29:50.448Z,22.90
2018-09-11T08:31:54.325Z,23.00
2018-09-11T08:33:58.221Z,23.10
2018-09-11T08:36:10.024Z,23.30
2018-09-11T08:38:13.873Z,23.50
2018-09-11T08:40:17.644Z,23.60
2018-09-11T08:42:21.541Z,23.80
2018-09-11T08:44:25.389Z,24.00
2018-09-11T08:46:29.167Z,24.20
2018-09-11T08:48:32.909Z,24.30
2018-09-11T08:50:36.622Z,24.20
2018-09-11T08:52:40.429Z,23.90
2018-09-11T08:54:44.191Z,23.90
2018-09-11T08:56:56.169Z,23.90
2018-09-11T08:58:59.951Z,23.90
2018-09-11T09:01:03.697Z,23.70
2018-09-11T09:03:07.542Z,23.40
2018-09-11T09:05:11.307Z,23.30
2018-09-11T09:07:15.193Z,23.20
2018-09-11T09:09:18.924Z,23.30
2018-09-11T09:11:22.829Z,23.50
2018-09-11T09:13:26.630Z,23.70
2018-09-11T09:15:37.835Z,23.80
2018-09-11T09:17:41.732Z,24.00
2018-09-11T09:19:45.445Z,24.20
2018-09-11T09:21:49.895Z,24.40
2018-09-11T09:23:53.708Z,24.60
2018-09-11T09:25:57.813Z,24.90
2018-09-11T09:28:01.613Z,25.10
2018-09-11T09:30:05.616Z,25.30
2018-09-11T09:32:09.473Z,25.40
2018-09-11T09:34:13.251Z,25.10
2018-09-11T09:36:24.968Z,24.80
2018-09-11T09:38:28.868Z,24.70
2018-09-11T09:40:32.731Z,24.60
2018-09-11T09:42:36.599Z,24.70
2018-09-11T09:44:40.323Z,25.00
2018-09-11T09:46:44.177Z,25.10
2018-09-11T09:48:48.029Z,25.30
2018-09-11T09:50:51.818Z,25.30
2018-09-11T09:52:55.580Z,25.20
2018-09-11T09:57:35.451Z,25.10
2018-09-11T09:59:39.241Z,25.00
2018-09-11T10:01:48.240Z,24.90
2018-09-11T10:03:52.061Z,24.70
2018-09-11T10:05:55.888Z,24.80
2018-09-11T10:08:00.786Z,24.70
2018-09-11T10:10:04.646Z,24.70
2018-09-11T10:12:14.947Z,24.60
2018-09-11T10:14:18.859Z,24.40
2018-09-11T10:16:22.637Z,24.30
2018-09-11T10:18:26.567Z,24.30
2018-09-11T10:20:30.470Z,24.20
2018-09-11T10:22:34.359Z,24.10
2018-09-11T10:24:38.205Z,24.00
2018-09-11T10:26:42.004Z,24.00
2018-09-11T10:28:45.904Z,24.10
2018-09-11T10:30:49.635Z,24.20
2018-09-11T10:32:53.535Z,24.10
2018-09-11T10:35:05.081Z,24.40
2018-09-11T10:37:08.933Z,24.60
2018-09-11T10:39:12.867Z,24.90
2018-09-11T10:41:16.611Z,25.10
2018-09-11T10:43:20.522Z,25.30
2018-09-11T10:45:24.273Z,25.40
2018-09-11T10:47:28.201Z,25.50
2018-09-11T10:49:32.185Z,25.60
2018-09-11T10:51:36.031Z,25.80
2018-09-11T10:53:39.935Z,26.00
2018-09-11T10:58:18.993Z,26.10
2018-09-11T11:00:22.840Z,26.00
2018-09-11T11:02:26.783Z,25.70
2018-09-11T11:04:30.664Z,25.80
2018-09-11T11:06:34.512Z,26.00
2018-09-11T11:08:38.338Z,26.20
2018-09-11T11:10:42.211Z,26.20
2018-09-11T11:12:46.038Z,26.50
2018-09-11T11:22:20.214Z,27.10
2018-09-11T11:24:24.101Z,27.10
2018-09-11T11:26:27.898Z,27.30
2018-09-11T11:28:31.784Z,27.30
2018-09-11T11:30:35.585Z,27.30
2018-09-11T11:32:41.328Z,27.10
2018-09-11T11:37:13.495Z,27.20
2018-09-11T11:39:17.548Z,27.20
2018-09-11T11:41:21.542Z,27.00
2018-09-11T11:43:25.515Z,27.00
2018-09-11T11:45:30.127Z,27.10
2018-09-11T11:47:34.604Z,27.30
2018-09-11T11:49:38.659Z,27.50
2018-09-11T11:51:42.602Z,27.70
2018-09-11T11:53:46.498Z,28.00
2018-09-11T11:55:58.079Z,28.20
2018-09-11T11:58:02.219Z,28.20
2018-09-11T12:00:06.272Z,28.10
2018-09-11T12:02:10.174Z,28.00
2018-09-11T12:04:14.008Z,27.80
2018-09-11T12:06:18.274Z,27.80
2018-09-11T12:08:22.605Z,27.80
2018-09-11T12:10:26.492Z,27.90
2018-09-11T12:12:31.615Z,28.00
2018-09-11T12:14:44.321Z,28.00
2018-09-11T12:16:48.520Z,28.20
2018-09-11T12:18:53.258Z,28.40
2018-09-11T12:20:57.127Z,28.60
2018-09-11T12:25:29.533Z,28.90
2018-09-11T12:27:33.652Z,29.00
2018-09-11T12:29:37.639Z,29.00
2018-09-11T12:31:43.057Z,29.10
2018-09-11T12:33:48.290Z,29.10
2018-09-11T12:45:43.031Z,29.00
2018-09-11T12:47:54.717Z,28.90
2018-09-11T12:57:22.500Z,29.10
2018-09-11T12:59:27.325Z,29.00
2018-09-11T13:01:31.124Z,28.70
2018-09-11T13:03:34.897Z,28.50
2018-09-11T13:05:38.720Z,28.20
2018-09-11T13:07:42.587Z,28.10
2018-09-11T13:09:46.355Z,28.20
2018-09-11T13:11:50.222Z,28.20
2018-09-11T13:13:54.236Z,28.20
2018-09-11T13:15:58.108Z,28.40
2018-09-11T13:18:01.929Z,28.70
2018-09-11T13:20:05.855Z,28.70
2018-09-11T13:22:09.986Z,28.80
2018-09-11T13:24:13.850Z,28.90
2018-09-11T13:26:17.582Z,28.80
2018-09-11T13:28:28.610Z,28.60
2018-09-11T13:30:32.495Z,28.60
2018-09-11T13:32:36.292Z,28.70
2018-09-11T13:34:40.165Z,28.70
2018-09-11T13:36:44.228Z,28.60
2018-09-11T13:38:48.077Z,28.50
2018-09-11T13:40:51.934Z,28.50
2018-09-11T13:42:55.748Z,28.50
2018-09-11T13:44:59.718Z,28.70
2018-09-11T13:49:39.205Z,29.00
2018-09-11T13:51:51.222Z,28.80
2018-09-11T13:54:13.369Z,28.50
2018-09-11T13:58:32.755Z,28.50
2018-09-11T14:00:36.713Z,28.60
2018-09-11T14:02:40.669Z,28.70
2018-09-11T14:04:44.680Z,28.80
2018-09-11T14:06:48.431Z,28.90
2018-09-11T14:09:00.352Z,28.90
2018-09-11T14:11:05.258Z,28.80
2018-09-11T14:13:09.286Z,28.90
2018-09-11T14:15:13.108Z,28.90
2018-09-11T14:17:16.855Z,29.00
2018-09-11T14:19:20.665Z,29.20
2018-09-11T14:21:24.554Z,29.20
2018-09-11T14:23:28.343Z,29.30
2018-09-11T14:25:32.121Z,29.20
2018-09-11T14:27:35.821Z,28.90
2018-09-11T14:29:39.675Z,28.90
2018-09-11T14:31:43.446Z,29.00
2018-09-11T14:33:47.353Z,29.10
2018-09-11T14:35:51.228Z,29.20
2018-09-11T14:37:54.974Z,29.30
2018-09-11T14:40:10.911Z,29.20
2018-09-11T14:44:42.406Z,29.20
2018-09-11T14:46:46.433Z,29.00
2018-09-11T14:48:51.002Z,29.20
2018-09-11T14:50:54.974Z,29.30
2018-09-11T14:52:59.018Z,29.40
2018-09-11T14:55:02.976Z,29.50
2018-09-11T14:57:07.551Z,29.60
2018-09-11T14:59:11.689Z,29.60
2018-09-11T15:01:29.802Z,29.70
2018-09-11T15:03:33.759Z,29.80
2018-09-11T15:05:37.670Z,29.70
2018-09-11T15:07:41.509Z,29.50
2018-09-11T15:09:45.368Z,29.40
2018-09-11T15:11:49.804Z,29.40
2018-09-11T15:13:53.763Z,29.50
2018-09-11T15:15:57.584Z,29.60
2018-09-11T15:18:01.571Z,29.60
2018-09-11T15:20:05.578Z,29.50
2018-09-11T15:22:09.490Z,29.40
2018-09-11T15:24:13.366Z,29.20
2018-09-11T15:26:17.206Z,29.10
2018-09-11T15:28:21.027Z,29.00
2018-09-11T15:30:24.946Z,29.00
2018-09-11T15:32:28.903Z,28.90
2018-09-11T15:34:32.832Z,29.00
2018-09-11T15:36:36.691Z,29.10
2018-09-11T15:38:40.758Z,29.10
2018-09-11T15:40:44.723Z,28.90
2018-09-11T15:42:48.639Z,28.80
2018-09-11T15:44:52.526Z,28.90
2018-09-11T15:46:57.060Z,28.90
2018-09-11T15:49:00.982Z,29.00
2018-09-11T15:51:05.005Z,29.00
2018-09-11T15:53:09.029Z,29.00
2018-09-11T15:55:15.066Z,28.90
2018-09-11T15:57:19.141Z,28.80
2018-09-11T15:59:30.413Z,28.70
2018-09-11T16:01:34.573Z,28.60
2018-09-11T16:03:38.583Z,28.30
2018-09-11T16:05:43.726Z,28.20
2018-09-11T16:08:00.832Z,28.20
2018-09-11T16:10:15.974Z,28.20
2018-09-11T16:12:23.198Z,28.20
2018-09-11T16:14:27.152Z,28.10
2018-09-11T16:16:31.036Z,27.90
2018-09-11T16:18:34.874Z,27.80
2018-09-11T16:20:39.041Z,27.70
2018-09-11T16:22:43.201Z,27.70
2018-09-11T16:24:47.225Z,27.70
2018-09-11T16:26:51.530Z,27.50
2018-09-11T16:28:55.385Z,27.50
2018-09-11T16:30:59.376Z,27.40
2018-09-11T16:33:03.746Z,27.40
2018-09-11T16:35:08.237Z,27.30
2018-09-11T16:37:16.216Z,27.20
2018-09-11T16:39:20.977Z,27.10
2018-09-11T16:41:25.759Z,26.90
2018-09-11T16:43:30.652Z,26.80
2018-09-11T16:45:34.736Z,26.80
2018-09-11T16:47:38.721Z,26.80
2018-09-11T16:49:44.792Z,26.70
2018-09-11T16:51:48.745Z,26.70
2018-09-11T16:53:52.717Z,26.60
2018-09-11T16:55:56.667Z,26.60
2018-09-11T16:58:02.501Z,26.60
2018-09-11T17:00:15.125Z,26.50
2018-09-11T17:02:20.297Z,26.50
2018-09-11T17:04:24.941Z,26.40
2018-09-11T17:06:30.036Z,26.30
2018-09-11T17:08:33.962Z,26.30
2018-09-11T17:10:39.180Z,26.20
2018-09-11T17:12:43.361Z,26.20
2018-09-11T17:14:47.275Z,26.10
2018-09-11T17:16:51.138Z,26.10
2018-09-11T17:18:54.940Z,26.00
2018-09-11T17:20:59.075Z,25.90
2018-09-11T17:23:02.951Z,25.80
2018-09-11T17:25:07.065Z,25.80
2018-09-11T17:27:13.979Z,25.70
2018-09-11T17:29:18.534Z,25.60
2018-09-11T17:31:24.111Z,25.60
2018-09-11T17:33:28.058Z,25.50
2018-09-11T17:35:33.232Z,25.40
2018-09-11T17:37:40.990Z,25.40
2018-09-11T17:39:45.225Z,25.30
2018-09-11T17:41:49.921Z,25.20
2018-09-11T17:43:57.214Z,25.10
2018-09-11T17:46:01.044Z,25.00
2018-09-11T17:48:07.056Z,24.90
2018-09-11T17:50:11.519Z,24.90
2018-09-11T17:52:15.935Z,24.70
2018-09-11T17:54:21.580Z,24.60
2018-09-11T17:56:27.607Z,24.50
2018-09-11T17:58:31.920Z,24.40
2018-09-11T18:00:36.193Z,24.20
2018-09-11T18:02:40.307Z,24.10
2018-09-11T18:04:44.548Z,24.00
2018-09-11T18:06:49.135Z,24.00
2018-09-11T18:08:53.200Z,23.90
2018-09-11T18:10:59.966Z,23.80
2018-09-11T18:13:04.521Z,23.70
2018-09-11T18:15:08.446Z,23.60
2018-09-11T18:17:15.595Z,23.50
2018-09-11T18:19:19.755Z,23.40
2018-09-11T18:21:23.985Z,23.30
2018-09-11T18:23:28.268Z,23.20
2018-09-11T18:25:32.661Z,23.00
2018-09-11T18:27:41.118Z,22.90
2018-09-11T18:29:50.764Z,22.80
2018-09-11T18:31:55.684Z,22.80
2018-09-11T18:36:15.229Z,22.60
2018-09-11T18:38:20.886Z,22.50
2018-09-11T18:40:27.897Z,22.40
2018-09-11T18:42:33.765Z,22.40
2018-09-11T18:44:39.054Z,22.30
2018-09-11T18:46:44.446Z,22.20
2018-09-11T18:48:49.060Z,22.10
2018-09-11T18:51:03.461Z,22.10
2018-09-11T18:53:09.667Z,22.00
2018-09-11T18:55:30.756Z,21.80
2018-09-11T18:57:46.072Z,21.70
2018-09-11T19:00:03.979Z,21.60
2018-09-11T19:04:21.585Z,21.40
2018-09-11T19:06:39.777Z,21.30
2018-09-11T19:09:01.399Z,21.30
2018-09-11T19:11:23.261Z,21.20
2018-09-11T19:13:40.723Z,21.10
2018-09-11T19:15:54.335Z,21.00
2018-09-11T19:18:03.732Z,20.90
2018-09-11T19:20:10.720Z,20.80
2018-09-11T19:22:16.621Z,20.80
2018-09-11T19:24:27.864Z,20.70
2018-09-11T19:26:33.079Z,20.60
2018-09-11T19:28:37.346Z,20.60
2018-09-11T19:30:42.513Z,20.50
2018-09-11T19:32:54.596Z,20.40
2018-09-11T19:35:00.800Z,20.30
2018-09-11T19:37:18.586Z,20.30
2018-09-11T19:41:44.665Z,20.20
2018-09-11T19:43:50.056Z,20.10
2018-09-11T19:45:55.208Z,20.10
2018-09-11T19:48:08.138Z,20.00
2018-09-11T19:50:20.521Z,19.90
2018-09-11T19:52:35.193Z,19.90
2018-09-11T19:54:46.640Z,19.90
2018-09-11T19:56:58.201Z,19.90
2018-09-11T19:59:03.443Z,19.80
2018-09-11T20:01:08.176Z,19.80
2018-09-11T20:03:17.478Z,19.70
2018-09-11T20:05:36.097Z,19.70
2018-09-11T20:10:00.144Z,19.60
2018-09-11T20:12:07.794Z,19.60
2018-09-11T20:14:13.466Z,19.50
2018-09-11T20:16:23.157Z,19.50
2018-09-11T20:18:27.720Z,19.50
2018-09-11T20:20:39.246Z,19.50
2018-09-11T20:22:51.136Z,19.40
2018-09-11T20:25:00.100Z,19.30
2018-09-11T20:27:12.750Z,19.30
2018-09-11T20:31:36.813Z,19.10
2018-09-11T20:33:48.353Z,19.10
2018-09-11T20:35:53.584Z,19.00
2018-09-11T20:38:04.136Z,18.90
2018-09-11T20:42:24.073Z,18.80
2018-09-11T20:46:45.292Z,18.70
2018-09-11T20:48:55.705Z,18.60
2018-09-11T20:53:19.691Z,18.50
2018-09-11T20:55:26.574Z,18.40
2018-09-11T20:57:34.229Z,18.40
2018-09-11T20:59:42.796Z,18.30
2018-09-11T21:01:48.934Z,18.20
2018-09-11T21:03:53.890Z,18.20
2018-09-11T21:05:59.275Z,18.20
2018-09-11T21:08:06.346Z,18.10
2018-09-11T21:10:10.776Z,18.10
2018-09-11T21:12:18.406Z,18.10
2018-09-11T21:14:22.926Z,18.00
2018-09-11T21:16:36.101Z,18.00
2018-09-11T21:20:56.192Z,17.90
2018-09-11T21:25:39.365Z,17.80
2018-09-11T21:30:24.024Z,17.70
2018-09-11T21:32:29.690Z,17.70
2018-09-11T21:34:37.347Z,17.60
2018-09-11T21:36:59.445Z,17.60
2018-09-11T21:39:09.493Z,17.60
2018-09-11T21:41:15.774Z,17.50
2018-09-11T21:43:20.837Z,17.40
2018-09-11T21:45:26.134Z,17.40
2018-09-11T21:47:30.795Z,17.40
2018-09-11T21:52:04.986Z,17.30
2018-09-11T21:54:16.878Z,17.20
2018-09-11T21:56:21.896Z,17.20
2018-09-11T21:58:36.613Z,17.20
2018-09-11T22:00:45.973Z,17.10
2018-09-11T22:02:56.565Z,17.10
2018-09-11T22:05:08.755Z,17.10
2018-09-11T22:07:12.922Z,17.00
2018-09-11T22:09:30.162Z,16.90
2018-09-11T22:11:35.526Z,16.90
2018-09-11T22:13:44.004Z,16.80
2018-09-11T22:15:49.909Z,16.80
2018-09-11T22:17:56.189Z,16.70
2018-09-11T22:20:00.415Z,16.70
2018-09-11T22:22:10.929Z,16.70
2018-09-11T22:24:18.894Z,16.70
2018-09-11T22:26:30.197Z,16.70
2018-09-11T22:30:53.838Z,16.60
2018-09-11T22:32:59.037Z,16.60
2018-09-11T22:35:03.414Z,16.60
2018-09-11T22:37:15.551Z,16.60
2018-09-11T22:39:29.564Z,16.50
2018-09-11T22:41:35.187Z,16.50
2018-09-11T22:43:40.151Z,16.40
2018-09-11T22:45:44.572Z,16.40
2018-09-11T22:47:57.935Z,16.40
2018-09-11T22:50:02.528Z,16.30
2018-09-11T22:52:08.469Z,16.30
2018-09-11T22:54:13.296Z,16.20
2018-09-11T22:56:22.396Z,16.20
2018-09-11T22:58:26.754Z,16.20
2018-09-11T23:00:36.581Z,16.20
2018-09-11T23:02:40.689Z,16.10
2018-09-11T23:04:48.803Z,16.10
2018-09-11T23:06:52.931Z,16.10
2018-09-11T23:08:57.329Z,16.10
2018-09-11T23:11:01.838Z,16.00
2018-09-11T23:13:10.253Z,16.00
2018-09-11T23:15:14.557Z,16.00
2018-09-11T23:17:19.119Z,15.90
2018-09-11T23:19:32.116Z,15.90
2018-09-11T23:21:36.148Z,15.80
2018-09-11T23:23:40.562Z,15.80
2018-09-11T23:25:48.505Z,15.70
2018-09-11T23:27:54.977Z,15.70
2018-09-11T23:29:59.188Z,15.70
2018-09-11T23:32:03.283Z,15.60
2018-09-11T23:34:08.637Z,15.60
2018-09-11T23:36:13.929Z,15.60
2018-09-11T23:38:22.999Z,15.60
2018-09-11T23:40:28.846Z,15.60
2018-09-11T23:42:33.504Z,15.50
2018-09-11T23:44:37.736Z,15.50
2018-09-11T23:46:48.075Z,15.40
2018-09-11T23:48:52.159Z,15.40
2018-09-11T23:50:58.545Z,15.40
2018-09-11T23:53:02.526Z,15.30
2018-09-11T23:55:11.397Z,15.20
2018-09-11T23:57:19.699Z,15.20
2018-09-11T23:59:24.677Z,15.20
